Time;durP1;ratioP1;P1;durP2;ratioP2;P2;SDS_P1;SDS_P2;PMS_P1;PMS_P2;Temp;Humidity;BMP_temperature;BMP_pressure;BME280_temperature;BME280_humidity;BME280_pressure;Samples;Min_cycle;Max_cycle;Signal;HPM_P1;HPM_P2
2022/09/23 00:01:02;;;;;;;;;13.50;13.00;;;;;13.28;66.35;101780.84;5008984;28;9970;-68
2022/09/23 00:03:30;;;;;;;;;18.75;14.75;;;;;13.29;66.59;101779.84;5010713;28;9822;-68
2022/09/23 00:06:02;;;;;;;;;16.25;14.00;;;;;13.30;66.15;101775.25;5008889;28;10073;-66
2022/09/23 00:08:29;;;;;;;;;14.75;14.75;;;;;13.32;66.39;101773.19;5026640;28;9946;-68
2022/09/23 00:10:56;;;;;;;;;13.00;13.00;;;;;13.32;66.30;101773.19;5010693;28;9973;-68
2022/09/23 00:13:24;;;;;;;;;15.00;13.25;;;;;13.34;66.00;101776.56;5011155;28;9874;-66
2022/09/23 00:15:51;;;;;;;;;14.50;14.50;;;;;13.37;66.20;101770.78;5007743;28;9921;-68
2022/09/23 00:18:19;;;;;;;;;16.00;16.00;;;;;13.37;66.04;101762.66;5005736;28;9942;-67
2022/09/23 00:20:46;;;;;;;;;13.50;13.00;;;;;13.38;65.95;101766.22;5008791;28;10191;-68
2022/09/23 00:23:12;;;;;;;;;13.00;13.00;;;;;13.39;66.16;101773.28;5008081;28;9928;-68
2022/09/23 00:25:39;;;;;;;;;17.75;14.50;;;;;13.40;65.67;101764.13;5008835;28;10170;-68
2022/09/23 00:28:05;;;;;;;;;13.00;13.00;;;;;13.41;65.65;101760.41;5003201;28;10024;-66
2022/09/23 00:30:32;;;;;;;;;17.25;15.25;;;;;13.45;65.71;101758.97;5007873;28;9930;-67
2022/09/23 00:32:59;;;;;;;;;12.50;12.00;;;;;13.47;65.43;101755.06;5007172;28;9853;-68
2022/09/23 00:35:25;;;;;;;;;16.00;16.00;;;;;13.48;65.11;101745.91;5005565;28;9704;-66
2022/09/23 00:37:51;;;;;;;;;10.75;10.75;;;;;13.51;65.06;101745.53;5009698;28;9854;-65
2022/09/23 00:40:18;;;;;;;;;17.00;17.00;;;;;13.52;64.84;101749.09;5008621;28;9768;-65
2022/09/23 00:42:47;;;;;;;;;12.50;11.75;;;;;13.53;64.80;101753.47;5007527;28;10818;-67
2022/09/23 00:45:14;;;;;;;;;14.25;14.25;;;;;13.49;64.78;101750.31;5008275;28;9856;-67
2022/09/23 00:47:53;;;;;;;;;13.00;13.00;;;;;13.48;64.82;101751.34;5007415;28;9863;-67
2022/09/23 00:50:30;;;;;;;;;12.00;11.75;;;;;13.49;64.75;101752.16;5009468;28;9911;-67
2022/09/23 00:52:59;;;;;;;;;15.25;13.50;;;;;13.48;64.68;101745.91;5008433;28;9723;-66
2022/09/23 00:55:29;;;;;;;;;17.25;15.75;;;;;13.45;64.63;101746.31;5018529;28;10667;-67
2022/09/23 00:57:59;;;;;;;;;15.25;15.00;;;;;13.42;64.74;101752.09;5009064;28;9912;-67
2022/09/23 01:00:26;;;;;;;;;17.00;17.00;;;;;13.43;64.72;101742.97;5008487;28;9931;-67
2022/09/23 01:02:53;;;;;;;;;14.00;13.00;;;;;13.42;64.62;101735.88;5017624;28;9887;-66
2022/09/23 01:05:19;;;;;;;;;15.75;15.25;;;;;13.43;64.63;101734.00;5022806;28;10049;-66
2022/09/23 01:07:47;;;;;;;;;17.25;15.25;;;;;13.42;64.42;101732.34;5005208;28;9905;-66
2022/09/23 01:10:17;;;;;;;;;16.50;15.75;;;;;13.39;64.49;101724.59;5007236;28;10071;-67
2022/09/23 01:12:59;;;;;;;;;12.50;12.50;;;;;13.39;64.43;101724.59;5007471;28;9922;-67
2022/09/23 01:15:44;;;;;;;;;17.50;14.25;;;;;13.41;64.55;101730.66;5002885;28;10043;-67
2022/09/23 01:18:31;;;;;;;;;15.50;13.00;;;;;13.42;64.48;101725.06;5006214;28;10022;-67
2022/09/23 01:21:16;;;;;;;;;17.75;15.75;;;;;13.41;64.26;101731.50;5009595;28;10007;-67
2022/09/23 01:24:20;;;;;;;;;16.25;15.00;;;;;13.41;64.36;101727.94;5005792;28;10016;-67
2022/09/23 01:26:57;;;;;;;;;16.50;15.00;;;;;13.35;64.32;101730.38;5004729;28;10009;-67
2022/09/23 01:29:49;;;;;;;;;20.50;17.50;;;;;13.36;64.39;101731.22;5007795;28;10152;-66
2022/09/23 01:32:41;;;;;;;;;19.75;17.75;;;;;13.33;64.20;101715.41;5005514;28;10208;-66
2022/09/23 01:35:26;;;;;;;;;18.25;17.25;;;;;13.31;64.33;101712.88;5008008;28;10147;-66
2022/09/23 01:38:16;;;;;;;;;21.25;18.00;;;;;13.29;64.24;101704.13;5011100;28;10166;-66
2022/09/23 01:41:11;;;;;;;;;18.50;17.75;;;;;13.29;64.16;101709.53;5007512;28;10052;-67
2022/09/23 01:44:01;;;;;;;;;15.25;15.25;;;;;13.30;64.33;101710.38;5008481;28;10305;-65
2022/09/23 01:46:36;;;;;;;;;14.00;12.00;;;;;13.27;63.91;101702.63;5005314;28;9942;-66
2022/09/23 01:49:11;;;;;;;;;15.25;12.25;;;;;13.26;64.12;101699.09;5010709;28;10095;-67
2022/09/23 01:51:44;;;;;;;;;18.50;16.00;;;;;13.27;64.15;101705.34;5011982;28;10042;-66
2022/09/23 01:54:32;;;;;;;;;18.50;18.50;;;;;13.27;63.79;101706.16;5013514;28;10187;-67
2022/09/23 01:57:27;;;;;;;;;14.00;14.00;;;;;13.27;63.95;101706.16;5020152;28;10061;-67
2022/09/23 02:00:03;;;;;;;;;20.00;15.50;;;;;13.27;63.92;101705.34;5010920;28;10176;-66
2022/09/23 02:02:43;;;;;;;;;14.75;14.25;;;;;13.27;63.92;101689.13;5007318;28;10245;-67
2022/09/23 02:05:19;;;;;;;;;15.25;15.25;;;;;13.26;63.97;101693.69;5020908;28;10078;-67
2022/09/23 02:07:58;;;;;;;;;21.75;19.00;;;;;13.25;63.86;101685.78;5012551;28;10662;-67
2022/09/23 02:10:32;;;;;;;;;14.25;14.25;;;;;13.23;63.83;101682.41;5011983;28;10185;-68
2022/09/23 02:13:06;;;;;;;;;13.50;12.50;;;;;13.22;63.57;101678.00;5010521;28;10076;-67
2022/09/23 02:15:48;;;;;;;;;13.25;12.25;;;;;13.22;63.48;101676.13;5009622;28;9853;-66
2022/09/23 02:18:20;;;;;;;;;11.50;11.50;;;;;13.23;63.33;101672.44;5008423;28;9971;-68
2022/09/23 02:20:52;;;;;;;;;16.25;16.25;;;;;13.25;63.28;101674.97;5011908;28;9910;-68
2022/09/23 02:23:26;;;;;;;;;15.25;14.25;;;;;13.22;63.31;101667.19;5003929;28;10134;-66
2022/09/23 02:26:18;;;;;;;;;13.50;13.50;;;;;13.23;63.23;101669.72;5011660;28;10032;-66
2022/09/23 02:29:15;;;;;;;;;14.75;13.25;;;;;13.21;63.20;101665.53;5006846;28;9941;-67
2022/09/23 02:31:52;;;;;;;;;11.25;11.25;;;;;13.20;62.96;101661.97;5007598;28;9935;-68
2022/09/23 02:34:33;;;;;;;;;13.75;12.50;;;;;13.19;63.06;101660.28;5003888;28;10151;-66
2022/09/23 02:37:15;;;;;;;;;18.00;16.75;;;;;13.15;63.00;101656.28;5000757;28;10070;-67
2022/09/23 02:40:04;;;;;;;;;11.00;10.50;;;;;13.16;63.10;101651.72;5011500;28;10006;-67
2022/09/23 02:42:46;;;;;;;;;12.50;10.75;;;;;13.15;63.16;101650.06;5011453;28;9920;-67
2022/09/23 02:45:13;;;;;;;;;14.00;13.50;;;;;13.14;63.17;101651.09;5007187;28;10029;-65
2022/09/23 02:47:46;;;;;;;;;16.75;16.75;;;;;13.12;63.04;101648.56;5020499;28;10086;-67
2022/09/23 02:50:12;;;;;;;;;15.00;10.50;;;;;13.11;63.19;101649.59;5009966;28;10067;-67
2022/09/23 02:52:39;;;;;;;;;14.00;14.00;;;;;13.10;63.24;101648.75;5008798;28;10023;-67
2022/09/23 02:55:10;;;;;;;;;15.25;13.75;;;;;13.09;63.41;101648.97;5024743;28;10122;-66
2022/09/23 02:57:37;;;;;;;;;16.50;16.00;;;;;13.05;63.31;101639.56;5022569;28;10236;-68
2022/09/23 03:00:04;;;;;;;;;14.50;12.50;;;;;13.06;63.48;101638.53;5010700;28;10188;-67
2022/09/23 03:02:51;;;;;;;;;19.00;19.00;;;;;13.04;63.43;101640.56;5023601;28;9959;-67
2022/09/23 03:05:23;;;;;;;;;13.25;12.50;;;;;13.02;63.51;101642.63;5011884;28;10265;-68
2022/09/23 03:08:08;;;;;;;;;16.75;14.00;;;;;13.00;63.52;101633.88;5004734;28;9971;-66
2022/09/23 03:10:35;;;;;;;;;17.25;17.25;;;;;12.98;63.71;101638.66;5011098;28;10921;-67
2022/09/23 03:13:14;;;;;;;;;15.00;13.25;;;;;12.96;63.50;101632.56;5010325;28;10259;-67
2022/09/23 03:15:56;;;;;;;;;14.50;14.50;;;;;12.97;63.55;101636.97;5011230;28;10089;-67
2022/09/23 03:18:35;;;;;;;;;17.25;17.25;;;;;12.96;63.46;101628.00;5008366;28;10121;-67
2022/09/23 03:21:08;;;;;;;;;16.50;14.75;;;;;12.97;63.58;101629.69;5048029;22;10160;-68
2022/09/23 03:23:39;;;;;;;;;21.75;20.75;;;;;12.96;63.72;101632.56;5061658;28;10289;-68
2022/09/23 03:26:18;;;;;;;;;11.00;11.00;;;;;12.96;63.52;101624.47;5071772;28;10260;-66
2022/09/23 03:28:45;;;;;;;;;17.00;15.25;;;;;12.92;63.54;101615.91;5049627;28;10255;-67
2022/09/23 03:31:14;;;;;;;;;19.25;16.50;;;;;12.91;63.55;101613.41;5044769;28;10189;-66
2022/09/23 03:33:45;;;;;;;;;18.00;15.75;;;;;12.90;63.65;101617.13;5035333;28;10269;-66
2022/09/23 03:39:07;;;;;;;;;18.75;18.25;;;;;12.89;63.49;101618.19;5036595;28;10114;-66
2022/09/23 03:41:43;;;;;;;;;19.00;18.25;;;;;12.85;63.25;101613.16;5043858;28;10151;-67
2022/09/23 03:44:10;;;;;;;;;17.75;16.75;;;;;12.81;63.71;101611.84;5011818;28;10996;-66
2022/09/23 03:46:37;;;;;;;;;20.25;16.50;;;;;12.81;63.58;101617.25;5031217;28;10245;-66
2022/09/23 03:49:15;;;;;;;;;18.75;14.25;;;;;12.81;63.64;101611.03;5047808;28;10186;-66
2022/09/23 03:51:42;;;;;;;;;17.00;14.75;;;;;12.80;63.66;101609.31;5040986;28;10356;-66
2022/09/23 03:54:10;;;;;;;;;21.25;19.50;;;;;12.81;63.71;101611.03;5041316;28;10206;-67
2022/09/23 03:56:36;;;;;;;;;18.50;15.75;;;;;12.81;63.69;101613.72;5049660;28;10197;-66
2022/09/23 03:59:03;;;;;;;;;16.00;14.25;;;;;12.80;63.47;101602.09;5041484;28;10281;-66
2022/09/23 04:01:29;;;;;;;;;12.50;12.50;;;;;12.82;63.82;101600.00;5035890;28;10312;-66
2022/09/23 04:03:56;;;;;;;;;14.25;13.25;;;;;12.82;63.49;101593.78;5038486;28;9927;-66
2022/09/23 04:06:22;;;;;;;;;12.50;12.50;;;;;12.81;63.76;101590.25;5031177;28;10037;-65
2022/09/23 04:08:49;;;;;;;;;16.50;16.25;;;;;12.83;63.68;101595.44;5029090;28;10099;-66
2022/09/23 04:11:15;;;;;;;;;13.00;13.00;;;;;12.86;63.53;101595.06;5036608;28;10092;-66
2022/09/23 04:13:42;;;;;;;;;15.50;14.00;;;;;12.87;63.35;101591.31;5043561;28;10049;-66
2022/09/23 04:16:08;;;;;;;;;14.25;13.25;;;;;12.88;63.35;101593.00;5039915;28;9952;-66
2022/09/23 04:18:35;;;;;;;;;11.50;11.50;;;;;12.91;63.10;101587.22;5031794;28;9861;-66
2022/09/23 04:21:01;;;;;;;;;12.50;12.25;;;;;12.91;63.00;101580.97;5044057;28;9913;-66
2022/09/23 04:23:27;;;;;;;;;16.50;15.75;;;;;12.89;63.06;101581.19;5040271;28;9939;-67
2022/09/23 04:25:54;;;;;;;;;13.00;10.00;;;;;12.91;63.09;101579.09;5030124;28;10066;-67
2022/09/23 04:28:21;;;;;;;;;12.50;11.00;;;;;12.94;62.96;101570.63;5029864;28;10093;-67
2022/09/23 04:30:48;;;;;;;;;11.75;11.75;;;;;12.94;62.80;101576.03;5030219;28;9946;-67
2022/09/23 04:33:15;;;;;;;;;12.00;12.00;;;;;12.96;62.62;101575.81;5016442;28;9927;-67
2022/09/23 04:35:42;;;;;;;;;16.50;15.50;;;;;12.96;62.88;101575.81;5010958;28;10469;-67
2022/09/23 04:38:11;;;;;;;;;13.00;13.00;;;;;12.95;62.71;101579.56;5023365;28;9993;-67
2022/09/23 04:40:38;;;;;;;;;16.50;13.50;;;;;12.94;62.69;101581.44;5022887;28;9946;-67
2022/09/23 04:43:04;;;;;;;;;16.75;15.00;;;;;12.94;62.97;101580.59;5021750;28;10041;-67
2022/09/23 04:45:31;;;;;;;;;15.50;13.50;;;;;12.91;63.05;101576.41;5031531;28;10006;-66
2022/09/23 04:47:58;;;;;;;;;13.75;13.75;;;;;12.90;63.17;101572.03;5020546;28;10017;-67
2022/09/23 04:50:25;;;;;;;;;10.25;10.25;;;;;12.91;63.34;101568.31;5026270;28;10010;-65
2022/09/23 04:52:52;;;;;;;;;12.50;12.50;;;;;12.93;63.16;101584.34;5035839;28;9896;-65
2022/09/23 04:55:20;;;;;;;;;14.50;10.75;;;;;12.92;62.85;101582.66;5032969;28;10118;-66
2022/09/23 04:57:47;;;;;;;;;14.00;14.00;;;;;12.92;62.78;101579.94;5029635;28;10031;-66
2022/09/23 05:00:14;;;;;;;;;12.50;11.25;;;;;12.92;63.09;101578.06;5031216;28;10117;-66
2022/09/23 05:02:49;;;;;;;;;14.25;12.50;;;;;12.92;63.38;101583.47;5027595;28;10064;-66
2022/09/23 05:05:19;;;;;;;;;14.00;14.00;;;;;12.92;63.25;101582.66;5012029;28;9856;-67
2022/09/23 05:07:47;;;;;;;;;16.00;12.00;;;;;12.92;63.22;101588.03;5029253;28;10086;-67
2022/09/23 05:10:14;;;;;;;;;13.00;13.00;;;;;12.92;63.23;101588.88;5030035;28;9994;-67
2022/09/23 05:12:41;;;;;;;;;13.25;12.00;;;;;12.93;63.64;101587.03;5033097;28;10009;-67
2022/09/23 05:15:07;;;;;;;;;14.25;11.50;;;;;12.91;63.67;101589.91;5037975;28;10168;-67
2022/09/23 05:17:36;;;;;;;;;12.00;11.75;;;;;12.91;63.54;101587.22;5029083;28;9946;-67
2022/09/23 05:20:03;;;;;;;;;13.50;12.25;;;;;12.86;63.68;101585.09;5043084;28;9993;-66
2022/09/23 05:22:30;;;;;;;;;10.50;10.25;;;;;12.83;63.41;101585.47;5029146;28;10197;-68
2022/09/23 05:24:58;;;;;;;;;14.25;13.25;;;;;12.86;63.64;101578.84;5040240;28;10646;-68
2022/09/23 05:27:25;;;;;;;;;10.75;10.25;;;;;12.88;63.74;101582.19;5028361;28;10168;-68
2022/09/23 05:29:51;;;;;;;;;11.50;9.25;;;;;12.90;63.46;101582.84;5033559;28;10016;-68
2022/09/23 05:32:19;;;;;;;;;9.25;9.25;;;;;12.93;63.29;101584.34;5025355;28;9866;-68
2022/09/23 05:34:45;;;;;;;;;11.50;11.50;;;;;12.94;63.17;101584.13;5038266;28;10656;-68
2022/09/23 05:37:12;;;;;;;;;15.50;13.75;;;;;12.94;63.25;101586.00;5032756;28;10014;-66
2022/09/23 05:39:38;;;;;;;;;13.00;13.00;;;;;12.93;63.32;101590.56;5032479;28;9996;-67
2022/09/23 05:42:05;;;;;;;;;8.25;8.25;;;;;12.93;63.61;101592.44;5031358;28;10117;-67
2022/09/23 05:44:31;;;;;;;;;9.25;9.25;;;;;12.95;63.44;101582.28;5033255;28;10032;-67
2022/09/23 05:46:57;;;;;;;;;11.00;11.00;;;;;12.96;63.51;101589.34;5022252;28;9992;-67
2022/09/23 05:49:24;;;;;;;;;12.75;12.75;;;;;12.96;63.57;101579.38;5037524;28;9929;-67
2022/09/23 05:52:10;;;;;;;;;11.50;11.50;;;;;12.95;63.42;101585.81;5027702;28;10759;-67
2022/09/23 05:54:37;;;;;;;;;16.00;14.50;;;;;12.94;63.86;101580.59;5030078;28;10082;-67
2022/09/23 05:57:04;;;;;;;;;16.50;10.00;;;;;12.95;63.74;101591.22;5027819;28;10881;-68
2022/09/23 05:59:31;;;;;;;;;12.00;10.50;;;;;12.96;63.77;101583.94;5033199;28;9914;-67
2022/09/23 06:01:58;;;;;;;;;14.25;10.25;;;;;12.99;64.01;101588.97;5028423;28;9935;-67
2022/09/23 06:04:25;;;;;;;;;10.25;8.75;;;;;13.01;63.62;101590.47;5010247;28;9845;-67
2022/09/23 06:06:51;;;;;;;;;12.50;12.00;;;;;13.03;63.64;101590.25;5014912;28;9789;-67
2022/09/23 06:09:18;;;;;;;;;12.75;11.25;;;;;13.00;63.84;101587.94;5014897;28;9885;-67
2022/09/23 06:11:45;;;;;;;;;11.00;11.00;;;;;13.03;64.38;101587.56;5018786;28;10756;-67
2022/09/23 06:14:13;;;;;;;;;12.75;12.00;;;;;13.05;63.93;101589.03;5029320;28;9775;-67
2022/09/23 06:16:40;;;;;;;;;10.75;10.75;;;;;13.06;63.93;101585.31;5035929;28;9744;-67
2022/09/23 06:19:06;;;;;;;;;12.00;11.75;;;;;13.08;63.60;101580.56;5047234;28;9781;-67
2022/09/23 06:21:35;;;;;;;;;10.25;10.00;;;;;13.09;63.87;101587.63;5033510;28;9838;-68
2022/09/23 06:24:02;;;;;;;;;13.00;11.50;;;;;13.08;63.81;101588.66;5031762;28;9800;-67
2022/09/23 06:26:32;;;;;;;;;17.00;13.50;;;;;13.14;64.80;101589.75;5040443;28;9892;-67
2022/09/23 06:29:00;;;;;;;;;12.00;11.25;;;;;13.17;64.38;101594.78;5025241;28;9972;-67
2022/09/23 06:31:27;;;;;;;;;11.50;11.00;;;;;13.17;64.50;101592.06;5025670;28;9680;-68
2022/09/23 06:33:54;;;;;;;;;14.00;11.00;;;;;13.18;64.16;101591.03;5013442;28;9798;-67
2022/09/23 06:36:34;;;;;;;;;18.25;17.25;;;;;13.16;63.97;101584.97;5012564;28;9644;-67
2022/09/23 06:39:10;;;;;;;;;15.00;13.50;;;;;13.14;63.93;101586.22;5011584;28;10069;-67
2022/09/23 06:41:37;;;;;;;;;18.00;15.50;;;;;13.14;63.79;101581.63;5019926;28;9972;-67
2022/09/23 06:44:08;;;;;;;;;12.75;11.00;;;;;13.18;63.88;101577.53;5012702;28;9852;-67
2022/09/23 06:46:35;;;;;;;;;11.75;10.50;;;;;13.19;64.08;101591.88;5020183;28;9843;-67
2022/09/23 06:49:02;;;;;;;;;9.75;9.75;;;;;13.22;63.98;101580.69;5032440;28;9822;-67
2022/09/23 06:51:29;;;;;;;;;8.00;8.00;;;;;13.22;63.84;101581.50;5032303;28;9616;-67
2022/09/23 06:53:55;;;;;;;;;7.25;7.00;;;;;13.26;64.01;101587.41;5012622;28;10194;-68
2022/09/23 06:56:22;;;;;;;;;10.00;10.00;;;;;13.28;63.81;101578.03;5012559;28;9717;-67
2022/09/23 06:58:51;;;;;;;;;8.00;8.00;;;;;13.30;63.86;101583.28;5012763;28;9711;-66
2022/09/23 07:01:18;;;;;;;;;10.00;10.00;;;;;13.32;63.82;101575.78;5012420;28;9777;-67
2022/09/23 07:03:47;;;;;;;;;12.00;12.00;;;;;13.33;63.85;101575.63;5030027;28;9795;-67
2022/09/23 07:06:13;;;;;;;;;17.25;12.50;;;;;13.33;63.82;101578.31;5031984;28;9747;-67
2022/09/23 07:08:43;;;;;;;;;10.50;10.50;;;;;13.33;63.80;101581.03;5014402;28;9875;-67
2022/09/23 07:11:11;;;;;;;;;10.75;10.75;;;;;13.34;63.43;101576.47;5012264;28;9824;-67
2022/09/23 07:13:40;;;;;;;;;7.00;7.00;;;;;13.39;63.58;101579.41;5025970;28;10209;-68
2022/09/23 07:16:07;;;;;;;;;15.25;14.25;;;;;13.41;63.55;101581.91;5018553;28;9594;-68
2022/09/23 07:18:35;;;;;;;;;12.50;11.25;;;;;13.43;63.21;101582.56;5015095;28;9950;-67
2022/09/23 07:21:14;;;;;;;;;16.00;12.75;;;;;13.46;63.25;101568.66;5011894;28;9712;-68
2022/09/23 07:23:43;;;;;;;;;13.75;13.75;;;;;13.52;63.30;101582.22;5029146;28;9726;-68
2022/09/23 07:26:09;;;;;;;;;15.00;13.00;;;;;13.56;62.97;101583.50;5031762;28;9836;-68
2022/09/23 07:28:36;;;;;;;;;13.00;9.50;;;;;13.59;62.94;101574.16;5013325;28;9888;-67
2022/09/23 07:31:13;;;;;;;;;14.75;11.50;;;;;13.63;62.89;101580.03;5011822;28;9935;-66
2022/09/23 07:33:42;;;;;;;;;11.00;9.25;;;;;13.66;63.11;101583.16;5029166;28;9675;-67
2022/09/23 07:36:18;;;;;;;;;13.25;10.00;;;;;13.68;63.32;101583.78;5031508;28;9686;-67
2022/09/23 07:38:46;;;;;;;;;8.75;8.25;;;;;13.70;63.27;101575.50;5013339;28;9709;-67
2022/09/23 07:41:15;;;;;;;;;4.25;2.00;;;;;13.71;63.03;101578.00;5011676;28;9591;-68
2022/09/23 07:43:43;;;;;;;;;19.00;16.00;;;;;13.71;62.98;101575.28;5028573;28;9681;-67
2022/09/23 07:46:13;;;;;;;;;13.25;12.00;;;;;13.76;62.80;101577.41;5019852;28;9843;-68
2022/09/23 07:48:40;;;;;;;;;10.25;9.00;;;;;13.78;62.67;101581.59;5013530;28;9700;-66
2022/09/23 07:51:16;;;;;;;;;16.00;11.50;;;;;13.83;62.98;101579.13;5010270;28;9769;-67
2022/09/23 07:53:48;;;;;;;;;13.25;9.75;;;;;13.85;62.94;101571.66;5022033;28;9778;-66
2022/09/23 07:56:17;;;;;;;;;18.00;16.50;;;;;13.85;62.91;101577.06;5031276;28;9951;-66
2022/09/23 07:58:45;;;;;;;;;14.75;10.50;;;;;13.88;62.70;101575.81;5024209;28;9928;-66
2022/09/23 08:01:12;;;;;;;;;16.00;12.00;;;;;13.94;62.90;101576.91;5031267;28;9878;-66
2022/09/23 08:03:38;;;;;;;;;14.25;13.75;;;;;13.97;63.21;101581.91;5019586;28;9776;-66
2022/09/23 08:06:12;;;;;;;;;10.25;10.25;;;;;14.03;63.20;101581.97;5027315;28;9835;-68
2022/09/23 08:08:42;;;;;;;;;11.75;10.50;;;;;14.08;63.13;101584.06;5019238;28;9586;-67
2022/09/23 08:11:12;;;;;;;;;13.00;12.00;;;;;14.14;63.36;101571.59;5031092;28;9683;-67
2022/09/23 08:13:39;;;;;;;;;10.50;10.50;;;;;14.20;62.98;101576.22;5029175;28;9644;-66
2022/09/23 08:16:05;;;;;;;;;15.25;13.00;;;;;14.25;62.89;101582.69;5029278;28;9698;-67
2022/09/23 08:18:32;;;;;;;;;10.75;10.00;;;;;14.27;63.13;101588.78;5024874;28;9619;-67
2022/09/23 08:20:59;;;;;;;;;12.25;12.25;;;;;14.26;62.88;101591.66;5030727;28;9702;-67
2022/09/23 08:23:25;;;;;;;;;11.75;11.75;;;;;14.29;62.97;101580.44;5029858;28;9785;-67
2022/09/23 08:26:00;;;;;;;;;9.75;8.00;;;;;14.31;63.29;101590.03;5030800;28;9712;-68
2022/09/23 08:28:27;;;;;;;;;11.00;11.00;;;;;14.35;63.24;101585.06;5022523;28;10175;-66
2022/09/23 08:30:54;;;;;;;;;11.50;9.25;;;;;14.35;63.41;101585.06;5010744;28;9544;-67
2022/09/23 08:33:21;;;;;;;;;12.25;11.50;;;;;14.39;63.49;101583.63;5013204;28;9703;-66
2022/09/23 08:35:49;;;;;;;;;10.00;9.00;;;;;14.42;63.96;101579.66;5030537;28;9464;-66
2022/09/23 08:38:17;;;;;;;;;13.25;13.25;;;;;14.43;63.77;101581.34;5016241;28;9463;-68
2022/09/23 08:40:48;;;;;;;;;13.75;10.00;;;;;14.44;63.84;101583.84;5026754;28;9455;-67
2022/09/23 08:43:29;;;;;;;;;18.00;14.25;;;;;14.44;63.99;101581.13;5016616;28;9654;-66
2022/09/23 08:46:01;;;;;;;;;14.75;14.75;;;;;14.44;63.66;101578.44;5009721;28;9701;-67
2022/09/23 08:48:32;;;;;;;;;11.75;11.50;;;;;14.45;64.23;101577.38;5011083;28;9685;-67
2022/09/23 08:51:05;;;;;;;;;15.00;11.00;;;;;14.49;64.23;101569.72;5010469;28;9659;-67
2022/09/23 08:53:37;;;;;;;;;16.00;14.00;;;;;14.47;63.63;101567.19;5011113;28;9519;-67
2022/09/23 08:56:13;;;;;;;;;13.00;13.00;;;;;14.49;64.00;101569.72;5010563;28;9543;-66
2022/09/23 08:59:12;;;;;;;;;10.50;10.00;;;;;14.53;64.10;101568.28;5021565;28;9375;-66
2022/09/23 09:01:39;;;;;;;;;9.00;9.00;;;;;14.56;64.16;101566.00;5011346;28;9476;-67
2022/09/23 09:04:26;;;;;;;;;10.25;10.25;;;;;14.59;64.32;101575.63;5028412;28;9315;-66
2022/09/23 09:07:14;;;;;;;;;9.67;7.00;;;;;14.64;64.15;101570.41;5025577;28;9469;-66
2022/09/23 09:10:19;;;;;;;;;9.67;9.67;;;;;14.66;63.92;101571.03;5010495;28;9509;-67
2022/09/23 09:13:06;;;;;;;;;13.00;13.00;;;;;14.68;64.63;101568.13;5017758;28;9317;-67
2022/09/23 09:15:43;;;;;;;;;9.25;9.25;;;;;14.69;64.54;101570.63;5026835;28;9364;-66
2022/09/23 09:18:30;;;;;;;;;16.25;13.50;;;;;14.69;64.54;101565.22;5016555;28;9535;-67
2022/09/23 09:21:11;;;;;;;;;12.00;12.00;;;;;14.69;64.18;101576.03;5010624;28;9463;-67
2022/09/23 09:24:01;;;;;;;;;12.00;9.67;;;;;14.72;64.28;101577.53;5023854;28;9420;-67
2022/09/23 09:26:31;;;;;;;;;12.00;12.00;;;;;14.73;64.16;101581.91;5009933;28;9519;-67
2022/09/23 09:29:08;;;;;;;;;11.75;11.00;;;;;14.74;64.27;101580.84;5029722;28;9563;-67
2022/09/23 09:31:56;;;;;;;;;14.25;14.25;;;;;14.75;64.04;101585.25;5028968;28;9487;-67
2022/09/23 09:34:26;;;;;;;;;9.67;8.67;;;;;14.77;64.43;101584.00;5012180;28;9432;-66
2022/09/23 09:36:58;;;;;;;;;16.00;15.50;;;;;14.76;64.53;101576.09;5026786;28;9308;-67
2022/09/23 09:39:34;;;;;;;;;14.33;11.00;;;;;14.76;64.45;101570.66;5026029;28;9474;-67
2022/09/23 09:42:01;;;;;;;;;12.00;11.00;;;;;14.76;64.40;101566.06;5026502;28;9350;-66
2022/09/23 09:45:18;;;;;;;;;10.25;10.25;;;;;14.80;64.62;101566.50;5018782;28;9533;-66
2022/09/23 09:47:55;;;;;;;;;12.33;11.00;;;;;14.83;64.51;101568.81;4998508;28;9566;-67
2022/09/23 09:50:40;;;;;;;;;14.00;13.00;;;;;14.86;64.98;101567.53;4988961;28;9380;-66
2022/09/23 09:53:35;;;;;;;;;13.67;13.67;;;;;14.92;64.96;101564.88;5007296;28;9550;-67
2022/09/23 09:56:11;;;;;;;;;13.00;13.00;;;;;14.99;65.05;101560.28;5009610;28;10185;-68
2022/09/23 09:58:59;;;;;;;;;12.00;11.00;;;;;15.03;64.98;101564.28;5027182;28;9519;-67
2022/09/23 10:01:27;;;;;;;;;15.75;14.75;;;;;15.06;65.42;101565.72;5031887;28;9491;-67
2022/09/23 10:03:56;;;;;;;;;14.75;14.50;;;;;15.05;65.06;101564.88;5032402;28;9665;-67
2022/09/23 10:06:27;;;;;;;;;21.50;16.25;;;;;15.07;65.36;101556.56;5033022;28;9681;-68
2022/09/23 10:09:00;;;;;;;;;16.25;14.00;;;;;15.07;65.33;101548.44;5031258;28;9367;-66
2022/09/23 10:11:31;;;;;;;;;10.67;10.00;;;;;15.07;65.18;101543.84;5019023;28;9591;-66
2022/09/23 10:14:18;;;;;;;;;14.67;14.67;;;;;15.13;65.21;101555.72;5028389;28;9481;-67
2022/09/23 10:16:47;;;;;;;;;13.50;12.25;;;;;15.15;65.33;101553.66;5027355;28;9347;-67
2022/09/23 10:19:28;;;;;;;;;14.33;13.33;;;;;15.16;64.98;101543.63;5013488;28;9374;-65
2022/09/23 10:21:59;;;;;;;;;23.00;19.00;;;;;15.15;65.06;101545.50;5022286;28;9447;-67
2022/09/23 10:24:29;;;;;;;;;14.25;13.50;;;;;15.14;65.06;101541.09;5033256;28;9598;-67
2022/09/23 10:27:02;;;;;;;;;16.75;13.25;;;;;15.16;64.90;101541.75;5015691;28;9567;-67
2022/09/23 10:29:59;;;;;;;;;14.00;13.00;;;;;15.16;65.16;101541.75;5013892;28;9564;-67
2022/09/23 10:32:30;;;;;;;;;12.33;10.67;;;;;15.19;65.18;101535.91;5013536;28;10166;-66
2022/09/23 10:35:07;;;;;;;;;14.67;12.33;;;;;15.21;65.08;101533.00;5011835;28;9320;-67
2022/09/23 10:37:40;;;;;;;;;17.33;16.33;;;;;15.20;65.27;101531.31;5026530;28;9308;-67
2022/09/23 10:46:44;;;;;;;;;11.00;10.00;;;;;15.30;64.99;101551.56;5027721;28;9405;-66
2022/09/23 10:49:36;;;;;;;;;8.67;8.67;;;;;15.31;65.26;101547.81;5013130;28;9326;-68
2022/09/23 10:52:21;;;;;;;;;16.00;14.75;;;;;15.31;64.99;101542.41;5018806;28;10049;-67
2022/09/23 10:55:26;;;;;;;;;13.75;12.25;;;;;15.34;65.32;101539.25;5012665;28;9574;-65
2022/09/23 10:58:13;;;;;;;;;15.50;14.00;;;;;15.40;65.23;101548.44;5041721;28;9516;-66
2022/09/23 11:00:51;;;;;;;;;18.00;18.00;;;;;15.41;65.19;101551.97;5050003;28;9529;-66
2022/09/23 11:03:53;;;;;;;;;15.00;13.67;;;;;15.44;65.08;101543.44;5023185;28;9566;-66
2022/09/23 11:06:31;;;;;;;;;11.33;10.00;;;;;15.48;64.76;101544.69;5012480;28;9308;-67
2022/09/23 11:09:32;;;;;;;;;11.33;11.00;;;;;15.50;65.03;101543.41;5031153;28;10031;-67
2022/09/23 11:12:16;;;;;;;;;11.33;11.33;;;;;15.51;64.99;101546.94;5031122;28;10098;-66
2022/09/23 11:14:58;;;;;;;;;9.67;9.67;;;;;15.50;65.22;101537.97;5032479;28;9235;-67
2022/09/23 11:17:39;;;;;;;;;8.33;7.00;;;;;15.52;65.34;101543.22;5024623;28;9336;-69
2022/09/23 11:20:34;;;;;;;;;11.33;8.67;;;;;15.55;65.31;101540.06;5012811;28;9271;-67
2022/09/23 11:23:23;;;;;;;;;13.67;13.00;;;;;15.53;65.25;101543.00;5019772;28;9225;-67
2022/09/23 11:26:18;;;;;;;;;10.67;9.33;;;;;15.52;65.07;101535.09;5012299;28;9338;-66
2022/09/23 11:29:15;;;;;;;;;12.00;11.33;;;;;15.52;65.40;101538.63;5029687;28;9240;-66
2022/09/23 11:32:00;;;;;;;;;12.00;10.33;;;;;15.53;65.39;101529.44;5030469;28;9390;-66
2022/09/23 11:34:47;;;;;;;;;13.00;10.33;;;;;15.57;65.73;101532.56;5029360;28;9241;-66
2022/09/23 11:37:26;;;;;;;;;11.00;10.00;;;;;15.61;65.93;101532.97;5024920;28;9509;-66
2022/09/23 11:40:13;;;;;;;;;12.00;10.00;;;;;15.63;65.68;101531.72;5011872;28;9395;-65
2022/09/23 11:42:54;;;;;;;;;11.33;9.67;;;;;15.65;65.63;101529.66;5021117;28;9243;-66
2022/09/23 11:45:27;;;;;;;;;12.67;10.00;;;;;15.68;65.59;101528.41;5031700;28;9258;-66
2022/09/23 11:47:59;;;;;;;;;18.67;14.67;;;;;15.69;65.49;101522.75;5023776;28;9255;-66
2022/09/23 11:50:32;;;;;;;;;14.67;14.00;;;;;15.74;65.76;101522.13;5032105;28;9432;-65
2022/09/23 11:53:24;;;;;;;;;11.33;9.33;;;;;15.82;65.59;101511.88;5019777;28;9290;-66
2022/09/23 11:55:59;;;;;;;;;9.00;9.00;;;;;15.89;65.15;101506.44;5015010;28;9161;-66